Flight ASXVIP5X

  • Submitted By: Krzysztof H. Blaszkow
  • Departure Airport: Cork Airport (EICK)
  • Arrival Airport: Dublin (EIDW)
  • Aircraft: BE58 (EJ-IAWH)
  • Flight Time: 01.11.52
  • Date Submitted: 04/02/2017
  • Route: TISMO W10 SUTEX
  • Status: Accepted
Flight Details
Gross Revenue:
(5 load / € 450.00 per unit
€ 2,250.00
Fuel Cost:
(66.6781 fuel used @ 0.45 / unit)
€ 30.01

Additional Log Information:

View Log

[18:36] - Carenado BARON B58 GOLD GREEN
[18:36] - Flight ASXVIP5X is ready to depart EICK with a final destination of EIDW.
[18:36] - Parking Brake Applied
[18:36] - Beacon Light ON
[18:36] - Wing Lights ON
[18:36] - Boarding
[18:36] - ADF1 - 284.0
[18:36] - ADF2 - 240.0
[18:36] - NAV1 - 114.60
[18:36] - NAV2 - 110.60
[18:36] - COM1 - 121.10
[18:36] - COM2 - 127.80
[18:36] - Transponder - 6611
[18:39] - COM1 - 122.80
[18:40] - Engine 1 Started
[18:40] - Engine 2 Started
[18:41] - Taxi Lights ON 0AGL
[18:41] - Parking Brake Released
[18:42] - Strobe Lights ON 0AGL
[18:42] - Landing Lights ON 0AGL
[18:42] - Taxi Lights OFF 0AGL
[18:43] - Flaps to position 1
[18:43] - Taxiing to Runway
[18:44] - Taking Off with 5 passengers on board
[18:44] - Take off at 93kts, with a pitch of 4deg and 255lbs of fuel on board
[18:44] - Wind Heading 185 | Wind Speed 13kts | Temperature 11 deg C
[18:44] - METAR Departure: EICK 021730Z 19009KT 9999 SCT018 BKN250 10/06 Q1022 NOSIG

[18:44] - Flaps to position 0 at 535ft and 99kts
[18:44] - Gear up at 161AGL
[18:44] - Climbing to TOC
[18:47] - AutoPilot Engaged at 4773AGL
[18:51] - COM2 - 123.45
[18:53] - Landing Lights OFF 8885AGL
[18:58] - NAV1 - 111.35
[18:59] - TOC reached
[18:59] - Cruise started
[19:17] - TOD reached
[19:17] - Descending to destination
[19:19] - Landing Lights ON 9534AGL
[19:32] - Landing Shortly
[19:37] - Flaps to position 1 at 1581ft and 171kts
[19:38] - Gear down at 1342AGL
[19:38] - AutoPilot Disengaged at 905AGL
[19:38] - Flaps to position 2 at 906ft and 124kts
[19:40] - Landed at -128fpm. With 112lbs of fuel onboard and a pitch angle of 2deg.
[19:40] - Wind Heading 196 | Wind Speed 10kts | Temperature 11 deg C
[19:40] - METAR Arrival: EIDW 021800Z 23011KT 190V250 9999 FEW035 BKN250 12/05 Q1022 NOSIG

[19:40] - Flaps to position 1
[19:40] - Flaps to position 0
[19:40] - Taxiing to Gate
[19:41] - Landing Lights OFF 3AGL
[19:41] - Taxi Lights ON 3AGL
[19:41] - Strobe Lights OFF 3AGL
[19:47] - Taxi Lights OFF 3AGL
[19:47] - Parking Brake Applied
[19:47] - Arrived safely at EIDW. We hope you enjoyed your flight!
[19:47] - Engine 1 Stopped
[19:47] - Engine 2 Stopped
[19:48] - Carenado BARON B58 GOLD GREEN
[19:48] - MaxSim Rate: 1x
[19:48] - SiouxAcars ver: 1.0.1.2

Route Map